Time;durP1;ratioP1;P1;durP2;ratioP2;P2;SDS_P1;SDS_P2;PMS_P1;PMS_P2;Temp;Humidity;BMP_temperature;BMP_pressure;BME280_temperature;BME280_humidity;BME280_pressure;Samples;Min_cycle;Max_cycle;Signal;HPM_P1;HPM_P2
2023/01/10 00:01:25;;;;;;;0.10;0.10;;;7.20;99.90;;;;;;5088025;28;20047;-68
2023/01/10 00:03:50;;;;;;;0.03;0.03;;;7.20;99.90;;;;;;5077350;28;20111;-69
2023/01/10 00:06:16;;;;;;;1.65;1.38;;;7.20;99.90;;;;;;5079994;28;20048;-68
2023/01/10 00:08:41;;;;;;;0.00;0.00;;;7.20;99.90;;;;;;5056993;28;20111;-69
2023/01/10 00:13:55;;;;;;;0.13;0.13;;;7.20;99.90;;;;;;5060717;28;21001;-69
2023/01/10 00:16:22;;;;;;;0.00;0.00;;;7.20;99.90;;;;;;5073706;28;20043;-69
2023/01/10 00:18:47;;;;;;;0.10;0.10;;;7.10;99.90;;;;;;5069484;28;20040;-69
2023/01/10 00:21:13;;;;;;;0.50;0.50;;;7.10;99.90;;;;;;5072873;28;20044;-69
2023/01/10 00:23:43;;;;;;;0.00;0.00;;;7.10;99.90;;;;;;5083367;28;20043;-69
2023/01/10 00:26:09;;;;;;;0.17;0.17;;;7.10;99.90;;;;;;5091892;28;20502;-69
2023/01/10 00:28:35;;;;;;;0.52;0.52;;;7.10;99.90;;;;;;5092147;28;20479;-69
2023/01/10 00:31:05;;;;;;;7.97;2.50;;;7.10;99.90;;;;;;5062338;28;20048;-69
2023/01/10 00:33:32;;;;;;;6.63;2.60;;;7.20;99.90;;;;;;5071737;28;20039;-69
2023/01/10 00:35:58;;;;;;;0.40;0.40;;;7.10;99.90;;;;;;5099478;28;20433;-69
2023/01/10 00:38:24;;;;;;;0.30;0.30;;;7.20;99.90;;;;;;5072888;28;20504;-69
2023/01/10 00:40:50;;;;;;;0.10;0.10;;;7.20;99.90;;;;;;5072325;28;20041;-68
2023/01/10 00:46:01;;;;;;;0.00;0.00;;;7.30;99.90;;;;;;5091625;28;20063;-69
2023/01/10 00:48:27;;;;;;;0.38;0.38;;;7.30;99.90;;;;;;5075765;28;20053;-68
2023/01/10 00:50:53;;;;;;;0.00;0.00;;;7.30;99.90;;;;;;5072509;28;20041;-69
2023/01/10 00:53:19;;;;;;;3.75;1.40;;;7.40;99.90;;;;;;5078276;28;20089;-69
2023/01/10 00:55:45;;;;;;;0.20;0.20;;;7.40;99.90;;;;;;5076655;28;20135;-69
2023/01/10 00:58:12;;;;;;;5.47;1.00;;;7.40;99.90;;;;;;5084306;28;20119;-69
2023/01/10 01:00:39;;;;;;;0.10;0.10;;;7.40;99.90;;;;;;5077302;28;20067;-69
2023/01/10 01:03:05;;;;;;;0.10;0.10;;;7.50;99.90;;;;;;5089534;28;20035;-69
2023/01/10 01:05:31;;;;;;;0.10;0.10;;;7.50;99.90;;;;;;5087819;28;20047;-69
2023/01/10 01:07:56;;;;;;;3.63;1.85;;;7.50;99.90;;;;;;5077625;28;20025;-69
2023/01/10 01:10:25;;;;;;;0.10;0.10;;;7.50;99.90;;;;;;5054042;28;20049;-69
2023/01/10 01:12:51;;;;;;;0.10;0.10;;;7.50;99.90;;;;;;5053333;28;20041;-69
2023/01/10 01:15:16;;;;;;;0.00;0.00;;;7.50;99.90;;;;;;5079397;28;20032;-70
2023/01/10 01:17:42;;;;;;;0.30;0.30;;;7.40;99.90;;;;;;5092236;28;20131;-69
2023/01/10 01:20:08;;;;;;;0.00;0.00;;;7.40;99.90;;;;;;5076633;28;20080;-69
2023/01/10 01:22:34;;;;;;;0.10;0.10;;;7.30;99.90;;;;;;5085320;28;20043;-69
2023/01/10 01:25:00;;;;;;;0.10;0.10;;;7.30;99.90;;;;;;5091438;28;20130;-69
2023/01/10 01:27:25;;;;;;;0.10;0.10;;;7.30;99.90;;;;;;5079046;28;20040;-70
2023/01/10 01:29:51;;;;;;;0.20;0.20;;;7.30;99.90;;;;;;5071653;28;20056;-70
2023/01/10 01:32:17;;;;;;;0.08;0.08;;;7.30;99.90;;;;;;5071629;28;20052;-70
2023/01/10 01:34:43;;;;;;;0.10;0.10;;;7.20;99.90;;;;;;5090021;28;20051;-69
2023/01/10 01:37:09;;;;;;;0.10;0.10;;;7.20;99.90;;;;;;5065850;28;20442;-69
2023/01/10 01:39:34;;;;;;;0.10;0.10;;;7.20;99.90;;;;;;5085389;28;20044;-69
2023/01/10 01:42:00;;;;;;;0.10;0.10;;;7.20;99.90;;;;;;5090887;28;20043;-69
2023/01/10 01:44:31;;;;;;;0.10;0.10;;;7.20;99.90;;;;;;5077600;28;20052;-69
2023/01/10 01:47:24;;;;;;;0.08;0.08;;;7.20;99.90;;;;;;5072308;28;20140;-69
2023/01/10 01:49:51;;;;;;;0.00;0.00;;;7.20;99.90;;;;;;5070359;28;20076;-69
2023/01/10 01:52:26;;;;;;;0.45;0.45;;;7.20;99.90;;;;;;5069725;28;20106;-69
2023/01/10 01:54:53;;;;;;;0.10;0.10;;;7.20;99.90;;;;;;5070333;28;20120;-69
2023/01/10 01:57:22;;;;;;;4.65;2.45;;;7.20;99.90;;;;;;5081412;28;20045;-69
2023/01/10 01:59:50;;;;;;;0.10;0.10;;;7.20;99.90;;;;;;5053303;28;20044;-69
2023/01/10 02:02:22;;;;;;;0.05;0.05;;;7.20;99.90;;;;;;5057250;28;20057;-69
2023/01/10 02:04:56;;;;;;;0.10;0.10;;;7.10;99.90;;;;;;5073226;28;20041;-69
2023/01/10 02:07:24;;;;;;;0.10;0.10;;;7.10;99.90;;;;;;5089146;28;20093;-69
2023/01/10 02:09:54;;;;;;;0.00;0.00;;;7.20;99.90;;;;;;5080248;28;20043;-70
2023/01/10 02:12:20;;;;;;;0.10;0.10;;;7.20;99.90;;;;;;5075945;28;20050;-70
2023/01/10 02:14:49;;;;;;;0.10;0.10;;;7.20;99.90;;;;;;5080466;28;20040;-70
2023/01/10 02:17:14;;;;;;;0.10;0.10;;;7.30;99.90;;;;;;5069653;28;20124;-69
2023/01/10 02:19:48;;;;;;;0.17;0.17;;;7.30;99.90;;;;;;5089087;28;20123;-69
2023/01/10 02:22:43;;;;;;;0.00;0.00;;;7.30;99.90;;;;;;5060812;28;20484;-69
2023/01/10 02:25:14;;;;;;;0.10;0.10;;;7.20;99.90;;;;;;5061219;28;20052;-69
2023/01/10 02:27:43;;;;;;;0.10;0.10;;;7.30;99.90;;;;;;5079310;28;20048;-69
2023/01/10 02:30:56;;;;;;;0.00;0.00;;;7.30;99.90;;;;;;5089996;28;20083;-69
2023/01/10 02:33:46;;;;;;;0.20;0.20;;;7.20;99.90;;;;;;5024997;28;20048;-69
2023/01/10 02:36:18;;;;;;;0.10;0.10;;;7.30;99.90;;;;;;5070610;28;20119;-70
2023/01/10 02:39:02;;;;;;;0.10;0.10;;;7.30;99.90;;;;;;5051921;28;20044;-69
2023/01/10 02:41:38;;;;;;;0.10;0.10;;;7.30;99.90;;;;;;5051611;28;20099;-70
2023/01/10 02:44:13;;;;;;;0.10;0.10;;;7.30;99.90;;;;;;5051825;28;20134;-70
2023/01/10 02:46:39;;;;;;;0.05;0.05;;;7.30;99.90;;;;;;5083925;28;20130;-70
2023/01/10 02:49:05;;;;;;;0.13;0.13;;;7.30;99.90;;;;;;5089663;28;20052;-70
2023/01/10 02:51:34;;;;;;;8.85;1.88;;;7.40;99.90;;;;;;5074290;28;20426;-70
2023/01/10 02:54:22;;;;;;;0.10;0.10;;;7.40;99.90;;;;;;5069751;28;20052;-70
2023/01/10 02:57:00;;;;;;;0.00;0.00;;;7.40;99.90;;;;;;5069307;28;20080;-70
2023/01/10 03:00:01;;;;;;;0.10;0.10;;;7.40;99.90;;;;;;5069334;28;20499;-70
2023/01/10 03:02:27;;;;;;;0.00;0.00;;;7.40;99.90;;;;;;5089266;28;20408;-67
2023/01/10 03:05:28;;;;;;;0.28;0.28;;;7.30;99.90;;;;;;5084811;28;20055;-70
2023/01/10 03:08:14;;;;;;;0.10;0.10;;;7.30;99.90;;;;;;4953071;28;20101;-70
2023/01/10 03:10:46;;;;;;;0.10;0.10;;;7.30;99.90;;;;;;5063932;28;20061;-70
2023/01/10 03:13:51;;;;;;;0.10;0.10;;;7.30;99.90;;;;;;5050682;28;20045;-69
2023/01/10 03:16:19;;;;;;;0.10;0.10;;;7.30;99.90;;;;;;5070510;28;20049;-70
2023/01/10 03:18:56;;;;;;;3.15;0.75;;;7.30;99.90;;;;;;5069293;28;20044;-70
2023/01/10 03:21:23;;;;;;;0.10;0.10;;;7.40;99.90;;;;;;5089894;28;20055;-70
2023/01/10 03:23:53;;;;;;;3.42;1.95;;;7.30;99.90;;;;;;5090062;28;20480;-70
2023/01/10 03:26:36;;;;;;;0.80;0.80;;;7.30;99.90;;;;;;5084681;28;20083;-70
2023/01/10 03:29:08;;;;;;;0.10;0.10;;;7.30;99.90;;;;;;5063421;28;20047;-70
2023/01/10 03:31:45;;;;;;;0.10;0.10;;;7.30;99.90;;;;;;5088093;28;20484;-70
2023/01/10 03:34:11;;;;;;;0.10;0.10;;;7.30;99.90;;;;;;5055074;28;20040;-70
2023/01/10 03:37:01;;;;;;;0.98;0.80;;;7.20;99.90;;;;;;5095760;28;20074;-70
2023/01/10 03:40:04;;;;;;;0.13;0.13;;;7.20;99.90;;;;;;5071596;28;20328;-70
2023/01/10 03:45:57;;;;;;;0.10;0.10;;;7.20;99.90;;;;;;5069891;28;20516;-70
2023/01/10 03:48:27;;;;;;;0.45;0.45;;;7.30;99.90;;;;;;5089536;28;20060;-70
2023/01/10 03:50:53;;;;;;;0.10;0.10;;;7.30;99.90;;;;;;5081350;28;20054;-69
2023/01/10 03:53:19;;;;;;;0.10;0.10;;;7.20;99.90;;;;;;5052106;28;20123;-70
2023/01/10 03:55:45;;;;;;;0.10;0.10;;;7.30;99.90;;;;;;5069430;28;20142;-70
2023/01/10 03:58:10;;;;;;;5.78;3.03;;;7.30;99.90;;;;;;5069856;28;20535;-70
2023/01/10 04:00:36;;;;;;;0.10;0.10;;;7.30;99.90;;;;;;5052369;28;20055;-70
2023/01/10 04:03:02;;;;;;;0.10;0.10;;;7.30;99.90;;;;;;5080339;28;20480;-70
2023/01/10 04:05:27;;;;;;;0.47;0.47;;;7.30;99.90;;;;;;5071776;28;20085;-70
2023/01/10 04:07:53;;;;;;;1.08;0.85;;;7.30;99.90;;;;;;5071955;28;20052;-70
2023/01/10 04:10:19;;;;;;;0.10;0.10;;;7.30;99.90;;;;;;5078251;28;20036;-70
2023/01/10 04:12:45;;;;;;;1.65;1.55;;;7.30;99.90;;;;;;5071472;28;20092;-70
2023/01/10 04:15:11;;;;;;;0.10;0.10;;;7.30;99.90;;;;;;5088537;28;20071;-70
2023/01/10 04:17:37;;;;;;;0.15;0.15;;;7.20;99.90;;;;;;5075221;28;20492;-70
2023/01/10 04:20:03;;;;;;;0.10;0.10;;;7.20;99.90;;;;;;5090332;28;20042;-70
2023/01/10 04:22:28;;;;;;;0.20;0.20;;;7.30;99.90;;;;;;5091214;28;20040;-69
2023/01/10 04:24:54;;;;;;;2.08;1.10;;;7.30;99.90;;;;;;5091806;28;20036;-71
2023/01/10 04:27:20;;;;;;;0.40;0.40;;;7.30;99.90;;;;;;5093091;28;20304;-70
2023/01/10 04:29:46;;;;;;;0.30;0.30;;;7.30;99.90;;;;;;5073275;28;20037;-69
2023/01/10 04:32:12;;;;;;;0.10;0.10;;;7.30;99.90;;;;;;5082477;28;20039;-70
2023/01/10 04:34:38;;;;;;;0.10;0.10;;;7.30;99.90;;;;;;5086274;28;20037;-70
2023/01/10 04:37:03;;;;;;;1.65;1.55;;;7.30;99.90;;;;;;5071879;28;20131;-69
2023/01/10 04:39:29;;;;;;;0.73;0.68;;;7.30;99.90;;;;;;5053800;28;20079;-69
2023/01/10 04:41:54;;;;;;;0.10;0.10;;;7.30;99.90;;;;;;5082396;28;20515;-70
2023/01/10 04:44:20;;;;;;;0.10;0.10;;;7.30;99.90;;;;;;5090922;28;20040;-69
2023/01/10 04:46:46;;;;;;;0.10;0.10;;;7.30;99.90;;;;;;5056753;28;20049;-69
2023/01/10 04:49:11;;;;;;;0.10;0.10;;;7.30;99.90;;;;;;5074663;28;20049;-69
2023/01/10 04:51:37;;;;;;;0.63;0.63;;;7.30;99.90;;;;;;5090089;28;20407;-70
2023/01/10 04:54:03;;;;;;;0.10;0.10;;;7.30;99.90;;;;;;5057172;28;20492;-70
2023/01/10 04:56:29;;;;;;;0.10;0.10;;;7.30;99.90;;;;;;5076818;28;20045;-70
2023/01/10 04:58:55;;;;;;;0.10;0.10;;;7.30;99.90;;;;;;5081606;28;20047;-70
2023/01/10 05:01:25;;;;;;;0.10;0.10;;;7.40;99.90;;;;;;5076722;28;20041;-70
2023/01/10 05:03:52;;;;;;;0.10;0.10;;;7.40;99.90;;;;;;5079636;28;20051;-69
2023/01/10 05:06:19;;;;;;;0.10;0.10;;;7.40;99.90;;;;;;5061037;28;20063;-70
2023/01/10 05:08:45;;;;;;;0.25;0.25;;;7.40;99.90;;;;;;5090983;28;20522;-70
2023/01/10 05:11:11;;;;;;;0.20;0.20;;;7.40;99.90;;;;;;5091947;28;20078;-70
2023/01/10 05:13:37;;;;;;;11.90;1.65;;;7.40;99.90;;;;;;5084149;28;20441;-69
2023/01/10 05:16:03;;;;;;;0.10;0.10;;;7.30;99.90;;;;;;5073202;28;20086;-69
2023/01/10 05:18:29;;;;;;;0.10;0.10;;;7.20;99.90;;;;;;5070518;28;20165;-67
2023/01/10 05:21:07;;;;;;;0.10;0.10;;;7.20;99.90;;;;;;5074045;28;20056;-69
2023/01/10 05:23:33;;;;;;;0.55;0.55;;;7.20;99.90;;;;;;5088959;28;20036;-69
2023/01/10 05:26:09;;;;;;;0.10;0.10;;;7.30;99.90;;;;;;5091007;28;20105;-69
2023/01/10 05:28:36;;;;;;;0.10;0.10;;;7.30;99.90;;;;;;5073571;28;20052;-69
2023/01/10 05:31:01;;;;;;;0.20;0.20;;;7.30;99.90;;;;;;5052598;28;20048;-69
2023/01/10 05:33:27;;;;;;;0.10;0.10;;;7.30;99.90;;;;;;5075504;28;20051;-69
2023/01/10 05:35:53;;;;;;;0.10;0.10;;;7.40;99.90;;;;;;5087223;28;20438;-69
2023/01/10 05:38:18;;;;;;;0.10;0.10;;;7.30;99.90;;;;;;5073412;28;20048;-69
2023/01/10 05:40:44;;;;;;;0.10;0.10;;;7.30;99.90;;;;;;5052740;28;20044;-69
2023/01/10 05:43:11;;;;;;;0.25;0.25;;;7.30;99.90;;;;;;5053626;28;20044;-69
2023/01/10 05:45:36;;;;;;;0.10;0.10;;;7.30;99.90;;;;;;5070778;28;20053;-69
2023/01/10 05:48:02;;;;;;;0.10;0.10;;;7.30;99.90;;;;;;5069782;28;20633;-69
2023/01/10 05:50:28;;;;;;;0.10;0.10;;;7.30;99.90;;;;;;5078768;28;20051;-69
2023/01/10 05:52:53;;;;;;;0.10;0.10;;;7.20;99.90;;;;;;5072619;28;20103;-69
2023/01/10 05:55:19;;;;;;;0.05;0.05;;;7.20;99.90;;;;;;5075164;28;20052;-69
2023/01/10 05:57:44;;;;;;;0.90;0.90;;;7.20;99.90;;;;;;5071018;28;20044;-69
2023/01/10 06:00:11;;;;;;;0.47;0.47;;;7.10;99.90;;;;;;5070528;28;20056;-69
2023/01/10 06:02:36;;;;;;;0.10;0.10;;;7.10;99.90;;;;;;5081199;28;20040;-69
2023/01/10 06:05:02;;;;;;;0.05;0.05;;;7.00;99.90;;;;;;5075979;28;20040;-69
2023/01/10 06:07:27;;;;;;;3.78;1.45;;;7.00;99.90;;;;;;5097665;28;20028;-70
2023/01/10 06:09:53;;;;;;;0.20;0.20;;;7.00;99.90;;;;;;5067795;28;20522;-69
2023/01/10 06:12:18;;;;;;;0.10;0.10;;;6.90;99.90;;;;;;5080275;28;20051;-69
2023/01/10 06:14:45;;;;;;;0.20;0.20;;;6.90;99.90;;;;;;5076279;28;20044;-69
2023/01/10 06:17:10;;;;;;;0.17;0.17;;;6.90;99.90;;;;;;5090704;28;20048;-69
2023/01/10 06:19:36;;;;;;;0.20;0.20;;;6.90;99.90;;;;;;5084928;28;20040;-69
2023/01/10 06:22:02;;;;;;;0.10;0.10;;;6.80;99.90;;;;;;5086295;28;20423;-69
2023/01/10 06:24:28;;;;;;;1.85;1.75;;;6.90;99.90;;;;;;5072274;28;20048;-70
2023/01/10 06:26:54;;;;;;;0.75;0.75;;;6.80;99.90;;;;;;5080502;28;20643;-70
2023/01/10 06:29:19;;;;;;;0.10;0.10;;;6.80;99.90;;;;;;5061220;28;20045;-70
2023/01/10 06:31:45;;;;;;;0.10;0.10;;;6.90;99.90;;;;;;5074922;28;20083;-70
2023/01/10 06:34:10;;;;;;;0.10;0.10;;;6.90;99.90;;;;;;5074003;28;20115;-70
2023/01/10 06:36:36;;;;;;;1.45;1.35;;;6.80;99.90;;;;;;5069675;28;20496;-70
2023/01/10 06:39:02;;;;;;;0.10;0.10;;;6.80;99.90;;;;;;5069542;28;20079;-69
2023/01/10 06:41:28;;;;;;;0.15;0.15;;;6.70;99.90;;;;;;5051392;28;20052;-70
2023/01/10 06:43:53;;;;;;;7.22;1.45;;;6.80;99.90;;;;;;5069819;28;20040;-70
2023/01/10 06:46:19;;;;;;;0.00;0.00;;;6.80;99.90;;;;;;5086087;28;20056;-70
2023/01/10 06:48:46;;;;;;;0.20;0.20;;;6.80;99.90;;;;;;5073652;28;20041;-70
2023/01/10 06:51:13;;;;;;;1.52;1.42;;;6.80;99.90;;;;;;5051415;28;20123;-70
2023/01/10 06:53:39;;;;;;;0.10;0.10;;;6.90;99.90;;;;;;5069725;28;20033;-70
2023/01/10 06:56:06;;;;;;;10.02;1.10;;;6.80;99.90;;;;;;5060714;28;20144;-69
2023/01/10 06:58:31;;;;;;;0.75;0.75;;;6.80;99.90;;;;;;5089460;28;20043;-70
2023/01/10 07:00:57;;;;;;;0.10;0.10;;;6.90;99.90;;;;;;5089868;28;20048;-69
2023/01/10 07:03:23;;;;;;;0.08;0.08;;;6.90;99.90;;;;;;5091680;28;20407;-69
2023/01/10 07:05:49;;;;;;;0.15;0.15;;;6.90;99.90;;;;;;5059810;28;20044;-69
2023/01/10 07:08:15;;;;;;;0.13;0.13;;;7.00;99.90;;;;;;5067392;28;20040;-69
2023/01/10 07:10:41;;;;;;;0.10;0.10;;;7.00;99.90;;;;;;5090523;28;20040;-69
2023/01/10 07:13:07;;;;;;;1.02;1.00;;;7.10;99.90;;;;;;5087099;28;20386;-69
2023/01/10 07:15:32;;;;;;;0.57;0.57;;;7.10;99.90;;;;;;5060673;28;20048;-70
2023/01/10 07:17:58;;;;;;;2.45;1.60;;;7.20;99.90;;;;;;5070092;28;20052;-69
2023/01/10 07:20:25;;;;;;;0.20;0.20;;;7.20;99.90;;;;;;5079402;28;20047;-69
2023/01/10 07:22:54;;;;;;;0.10;0.10;;;7.20;99.90;;;;;;5070805;28;20032;-70
2023/01/10 07:25:21;;;;;;;0.30;0.30;;;7.30;99.90;;;;;;5081452;28;20044;-69
2023/01/10 07:27:46;;;;;;;1.65;1.00;;;7.30;99.90;;;;;;5067711;28;20040;-69
2023/01/10 07:30:12;;;;;;;0.10;0.10;;;7.30;99.90;;;;;;5070922;28;20053;-69
2023/01/10 07:32:38;;;;;;;2.20;1.58;;;7.30;99.90;;;;;;5077492;28;20044;-69
2023/01/10 07:35:04;;;;;;;0.68;0.68;;;7.30;99.90;;;;;;5069800;28;20028;-70
2023/01/10 07:37:29;;;;;;;0.57;0.57;;;7.30;99.90;;;;;;5104773;28;20116;-70
2023/01/10 07:39:55;;;;;;;0.30;0.30;;;7.30;99.90;;;;;;5084367;28;20052;-70
2023/01/10 07:42:20;;;;;;;0.20;0.20;;;7.30;99.90;;;;;;5078389;28;20487;-70
2023/01/10 07:44:46;;;;;;;0.10;0.10;;;7.30;99.90;;;;;;5080663;28;20040;-69
2023/01/10 07:47:12;;;;;;;1.92;1.75;;;7.30;99.90;;;;;;5082544;28;20055;-69
2023/01/10 07:49:37;;;;;;;0.20;0.20;;;7.30;99.90;;;;;;5081437;28;20070;-69
2023/01/10 07:52:03;;;;;;;0.10;0.10;;;7.20;99.90;;;;;;5091271;28;20047;-69
2023/01/10 07:54:29;;;;;;;0.10;0.10;;;7.20;99.90;;;;;;5091623;28;20032;-69
2023/01/10 07:56:55;;;;;;;0.10;0.10;;;7.10;99.90;;;;;;5065146;28;20044;-69
2023/01/10 07:59:20;;;;;;;0.10;0.10;;;7.00;99.90;;;;;;5095375;28;20036;-69
2023/01/10 08:01:47;;;;;;;0.32;0.32;;;7.00;99.90;;;;;;5112910;28;20429;-69
2023/01/10 08:04:13;;;;;;;0.63;0.60;;;6.90;99.90;;;;;;5099945;28;20462;-69
2023/01/10 08:06:38;;;;;;;0.10;0.10;;;6.80;99.90;;;;;;5059368;28;20132;-69
2023/01/10 08:09:04;;;;;;;0.10;0.10;;;6.80;99.90;;;;;;5084277;28;20051;-69
2023/01/10 08:11:30;;;;;;;0.10;0.10;;;6.80;99.90;;;;;;5073062;28;20044;-69
2023/01/10 08:13:55;;;;;;;0.22;0.22;;;6.70;99.90;;;;;;5081178;28;20109;-69
2023/01/10 08:16:21;;;;;;;0.10;0.10;;;6.70;99.90;;;;;;5062071;28;20082;-69
2023/01/10 08:18:47;;;;;;;0.10;0.10;;;6.60;99.90;;;;;;5054716;28;20051;-70
2023/01/10 08:21:12;;;;;;;0.20;0.20;;;6.60;99.90;;;;;;5054259;28;20066;-70
2023/01/10 08:23:38;;;;;;;0.08;0.08;;;6.60;99.90;;;;;;5075957;28;20518;-70
2023/01/10 08:26:05;;;;;;;1.45;1.30;;;6.60;99.90;;;;;;5092659;28;20036;-69
2023/01/10 08:28:30;;;;;;;0.10;0.10;;;6.60;99.90;;;;;;5093196;28;20448;-69
2023/01/10 08:30:56;;;;;;;0.10;0.10;;;6.60;99.90;;;;;;5072976;28;20123;-69
2023/01/10 08:33:23;;;;;;;0.28;0.28;;;6.60;99.90;;;;;;5054862;28;20056;-69
2023/01/10 08:35:50;;;;;;;0.10;0.10;;;6.60;99.90;;;;;;5071234;28;20044;-70
2023/01/10 08:38:15;;;;;;;0.10;0.10;;;6.50;99.90;;;;;;5073772;28;20546;-70
2023/01/10 08:40:41;;;;;;;0.13;0.13;;;6.60;99.90;;;;;;5068446;28;20064;-70
2023/01/10 08:43:10;;;;;;;1.48;1.38;;;6.60;99.90;;;;;;5081689;28;20822;-70
2023/01/10 08:45:36;;;;;;;0.13;0.13;;;6.70;99.90;;;;;;5079696;28;20078;-70
2023/01/10 08:48:04;;;;;;;0.13;0.13;;;6.70;99.90;;;;;;5090216;28;20051;-70
2023/01/10 08:50:30;;;;;;;0.10;0.10;;;6.80;99.90;;;;;;5080562;28;20044;-70
2023/01/10 08:52:59;;;;;;;0.28;0.28;;;6.80;99.90;;;;;;5085549;28;20473;-70
2023/01/10 08:55:24;;;;;;;0.20;0.20;;;6.90;99.90;;;;;;5073875;28;20075;-70
2023/01/10 08:57:50;;;;;;;0.10;0.10;;;6.90;99.90;;;;;;5087524;28;20127;-70
2023/01/10 09:00:16;;;;;;;0.20;0.20;;;7.00;99.90;;;;;;5085203;28;20044;-70
2023/01/10 09:02:42;;;;;;;0.43;0.43;;;6.90;99.90;;;;;;5072428;28;20055;-70
2023/01/10 09:05:08;;;;;;;2.85;2.58;;;7.00;99.90;;;;;;5087780;28;20036;-69
2023/01/10 09:07:34;;;;;;;0.38;0.38;;;7.00;99.90;;;;;;5070760;28;20476;-69
2023/01/10 09:10:00;;;;;;;0.10;0.10;;;7.00;99.90;;;;;;5089457;28;20039;-70
2023/01/10 09:12:53;;;;;;;0.10;0.10;;;7.00;99.90;;;;;;5077537;28;20407;-69
2023/01/10 09:15:17;;;;;;;0.10;0.10;;;7.00;99.90;;;;;;5072267;28;20044;-70
2023/01/10 09:17:42;;;;;;;0.10;0.10;;;7.10;99.90;;;;;;5079930;28;20044;-70
2023/01/10 09:20:09;;;;;;;13.13;1.55;;;7.10;99.90;;;;;;5070413;28;20040;-70
2023/01/10 09:22:38;;;;;;;0.47;0.47;;;7.10;99.90;;;;;;5070979;28;20044;-70
2023/01/10 09:25:05;;;;;;;0.10;0.10;;;7.10;99.90;;;;;;5054124;28;20049;-70
2023/01/10 09:27:31;;;;;;;0.10;0.10;;;7.10;99.90;;;;;;5077976;28;20419;-70
2023/01/10 09:29:57;;;;;;;0.47;0.47;;;7.10;99.90;;;;;;5080796;28;20395;-70
2023/01/10 09:32:23;;;;;;;0.03;0.03;;;7.20;99.90;;;;;;5061904;28;20052;-70
2023/01/10 09:34:49;;;;;;;0.10;0.10;;;7.20;99.90;;;;;;5059920;28;20085;-70
2023/01/10 09:37:15;;;;;;;0.10;0.10;;;7.30;99.90;;;;;;5060095;28;20049;-70
2023/01/10 09:39:40;;;;;;;0.65;0.65;;;7.30;99.90;;;;;;5069183;28;20047;-69
2023/01/10 09:42:27;;;;;;;0.10;0.10;;;7.40;99.90;;;;;;5084580;28;20052;-70
2023/01/10 09:45:05;;;;;;;0.10;0.10;;;7.40;99.90;;;;;;5091135;28;20048;-70
2023/01/10 09:47:53;;;;;;;0.10;0.10;;;7.50;99.90;;;;;;5093075;28;20487;-69
2023/01/10 09:50:51;;;;;;;1.05;0.98;;;7.50;99.90;;;;;;5085226;28;20052;-70
2023/01/10 09:53:21;;;;;;;0.10;0.10;;;7.50;99.90;;;;;;5086027;28;20054;-70
2023/01/10 09:55:58;;;;;;;0.10;0.10;;;7.50;99.90;;;;;;5095713;28;20047;-70
2023/01/10 09:58:28;;;;;;;2.45;0.75;;;7.50;99.90;;;;;;5070805;28;20041;-70
2023/01/10 10:01:00;;;;;;;0.10;0.10;;;7.50;99.90;;;;;;5093455;28;20761;-70
2023/01/10 10:03:55;;;;;;;1.70;1.60;;;7.50;99.90;;;;;;5076552;28;20032;-70
2023/01/10 10:06:22;;;;;;;0.10;0.10;;;7.50;99.90;;;;;;5071603;28;20048;-70
2023/01/10 10:08:49;;;;;;;1.75;0.95;;;7.50;99.90;;;;;;5087926;28;20040;-70
2023/01/10 10:11:32;;;;;;;0.75;0.75;;;7.50;99.90;;;;;;5054585;28;20056;-69
2023/01/10 10:14:22;;;;;;;1.90;0.35;;;7.50;99.90;;;;;;5071406;28;20040;-70
2023/01/10 10:17:26;;;;;;;0.15;0.15;;;7.50;99.90;;;;;;5070883;28;20072;-70
2023/01/10 10:20:13;;;;;;;0.63;0.50;;;7.60;99.90;;;;;;5082404;28;20044;-70
2023/01/10 10:23:00;;;;;;;0.10;0.10;;;7.60;99.90;;;;;;5067419;28;20053;-70
2023/01/10 10:25:47;;;;;;;0.10;0.10;;;7.60;99.90;;;;;;5052465;28;20052;-70
2023/01/10 10:28:32;;;;;;;0.40;0.40;;;7.70;99.90;;;;;;5069446;28;20052;-71
2023/01/10 10:31:03;;;;;;;0.20;0.20;;;7.70;99.90;;;;;;5066749;28;20048;-70
2023/01/10 10:33:53;;;;;;;0.17;0.17;;;7.70;99.90;;;;;;5109259;28;20088;-70
2023/01/10 10:36:42;;;;;;;0.00;0.00;;;7.70;99.90;;;;;;5052914;28;20475;-70
2023/01/10 10:39:14;;;;;;;0.10;0.10;;;7.70;99.90;;;;;;5069526;28;20047;-70
2023/01/10 10:41:43;;;;;;;0.20;0.20;;;7.70;99.90;;;;;;5079237;28;20037;-70
2023/01/10 10:44:31;;;;;;;0.10;0.10;;;7.70;99.90;;;;;;5081612;28;20051;-70
2023/01/10 10:46:58;;;;;;;0.08;0.08;;;7.70;99.90;;;;;;5051929;28;20064;-70
2023/01/10 10:49:51;;;;;;;5.00;1.55;;;7.70;99.90;;;;;;5067749;28;20048;-69
2023/01/10 10:52:22;;;;;;;3.83;1.48;;;7.70;99.90;;;;;;5086580;28;20040;-69
2023/01/10 10:54:48;;;;;;;0.73;0.73;;;7.70;99.90;;;;;;5071038;28;20052;-70
2023/01/10 10:57:14;;;;;;;0.22;0.22;;;7.70;99.90;;;;;;5059315;28;20108;-69
2023/01/10 10:59:43;;;;;;;10.25;1.85;;;7.70;99.90;;;;;;5061990;28;20384;-69
2023/01/10 11:02:22;;;;;;;0.98;0.93;;;7.70;99.90;;;;;;5075276;28;20051;-70
2023/01/10 11:04:50;;;;;;;0.10;0.10;;;7.70;99.90;;;;;;5100791;28;20385;-70
2023/01/10 11:07:18;;;;;;;0.30;0.30;;;7.70;99.90;;;;;;5072704;28;20036;-70
2023/01/10 11:10:07;;;;;;;0.95;0.95;;;7.70;99.90;;;;;;5051318;28;20093;-70
2023/01/10 11:12:34;;;;;;;0.10;0.10;;;7.70;99.90;;;;;;5073041;28;20089;-70
2023/01/10 11:15:00;;;;;;;0.45;0.45;;;7.70;99.90;;;;;;5073000;28;20047;-70
2023/01/10 11:17:32;;;;;;;2.35;2.15;;;7.70;99.90;;;;;;5069352;28;20571;-70
2023/01/10 11:20:02;;;;;;;6.82;1.75;;;7.60;99.90;;;;;;5068799;28;20033;-70
2023/01/10 11:22:32;;;;;;;0.10;0.10;;;7.70;99.90;;;;;;5069776;28;20127;-70
2023/01/10 11:25:00;;;;;;;0.20;0.20;;;7.70;99.90;;;;;;5070055;28;20060;-70
2023/01/10 11:27:29;;;;;;;3.30;1.58;;;7.60;99.90;;;;;;5072999;28;20048;-70
2023/01/10 11:30:01;;;;;;;0.10;0.10;;;7.60;99.90;;;;;;5082509;28;20077;-70
2023/01/10 11:32:35;;;;;;;0.45;0.45;;;7.60;99.90;;;;;;5074828;28;20446;-70
2023/01/10 11:35:08;;;;;;;0.47;0.47;;;7.60;99.90;;;;;;5073686;28;20051;-70
2023/01/10 11:37:35;;;;;;;1.02;1.02;;;7.60;99.90;;;;;;5073790;28;20131;-70
2023/01/10 11:40:22;;;;;;;0.20;0.20;;;7.60;99.90;;;;;;5053815;28;20141;-69
2023/01/10 11:42:49;;;;;;;0.40;0.40;;;7.60;99.90;;;;;;5073551;28;20115;-70
2023/01/10 11:45:18;;;;;;;1.33;1.25;;;7.50;99.90;;;;;;5072576;28;20373;-69
2023/01/10 11:48:04;;;;;;;0.10;0.10;;;7.50;99.90;;;;;;5072504;28;20065;-70
2023/01/10 11:50:34;;;;;;;0.85;0.85;;;7.50;99.90;;;;;;5072615;28;20040;-70
2023/01/10 11:53:00;;;;;;;1.30;1.25;;;7.50;99.90;;;;;;5054401;28;20049;-70
2023/01/10 11:55:31;;;;;;;0.10;0.10;;;7.60;99.90;;;;;;5073444;28;20037;-69
2023/01/10 11:58:02;;;;;;;0.57;0.45;;;7.50;99.90;;;;;;5072588;28;20043;-69
2023/01/10 12:00:43;;;;;;;0.10;0.10;;;7.50;99.90;;;;;;5055642;28;20048;-69
2023/01/10 12:03:27;;;;;;;0.82;0.60;;;7.50;99.90;;;;;;5073394;28;20484;-70
2023/01/10 12:06:01;;;;;;;0.10;0.10;;;7.40;99.90;;;;;;5058699;28;20048;-70
2023/01/10 12:08:38;;;;;;;0.65;0.65;;;7.40;99.90;;;;;;5054573;28;20127;-70
2023/01/10 12:11:05;;;;;;;0.20;0.20;;;7.40;99.90;;;;;;5073147;28;20044;-70
2023/01/10 12:13:46;;;;;;;0.57;0.57;;;7.40;99.90;;;;;;5072901;28;20044;-70
2023/01/10 12:16:17;;;;;;;1.20;1.20;;;7.40;99.90;;;;;;5072500;28;20075;-69
2023/01/10 12:18:44;;;;;;;0.47;0.47;;;7.40;99.90;;;;;;5073074;28;20171;-70
2023/01/10 12:21:12;;;;;;;1.25;1.17;;;7.40;99.90;;;;;;5071765;28;20048;-70
2023/01/10 12:23:40;;;;;;;0.20;0.20;;;7.40;99.90;;;;;;5073020;28;20048;-69
2023/01/10 12:26:08;;;;;;;0.22;0.22;;;7.40;99.90;;;;;;5072820;28;20041;-70
2023/01/10 12:28:35;;;;;;;3.72;3.13;;;7.40;99.90;;;;;;5072788;28;20400;-70
2023/01/10 12:31:04;;;;;;;0.08;0.08;;;7.30;99.90;;;;;;5090893;28;20039;-70
2023/01/10 12:33:45;;;;;;;1.98;1.08;;;7.40;99.90;;;;;;5091100;28;20678;-70
2023/01/10 12:36:29;;;;;;;0.95;0.95;;;7.40;99.90;;;;;;5088733;28;20756;-70
2023/01/10 12:39:19;;;;;;;9.85;2.40;;;7.40;99.90;;;;;;5081999;28;20051;-70
2023/01/10 12:45:04;;;;;;;2.33;0.73;;;7.40;99.90;;;;;;5089286;28;20060;-70
2023/01/10 12:47:51;;;;;;;2.97;1.30;;;7.40;99.90;;;;;;5093322;28;20109;-70
2023/01/10 12:50:34;;;;;;;3.50;1.85;;;7.40;99.90;;;;;;5092446;28;20071;-70
2023/01/10 12:53:33;;;;;;;0.35;0.35;;;7.40;99.90;;;;;;5080867;28;20539;-70
2023/01/10 12:56:04;;;;;;;0.10;0.10;;;7.30;99.90;;;;;;5051334;28;20496;-70
2023/01/10 12:58:45;;;;;;;0.20;0.20;;;7.30;99.90;;;;;;5053955;28;20060;-68
2023/01/10 13:01:18;;;;;;;0.13;0.13;;;7.30;99.90;;;;;;5077958;28;20036;-70
2023/01/10 13:03:48;;;;;;;6.75;3.15;;;7.30;99.90;;;;;;5081634;28;20040;-70
2023/01/10 13:06:23;;;;;;;1.02;1.02;;;7.30;99.90;;;;;;5086262;28;20051;-70
2023/01/10 13:08:50;;;;;;;0.10;0.10;;;7.30;99.90;;;;;;5072581;28;20076;-70
2023/01/10 13:11:21;;;;;;;0.10;0.10;;;7.20;99.90;;;;;;5071846;28;20190;-70
2023/01/10 13:13:55;;;;;;;3.95;0.93;;;7.20;99.90;;;;;;5066506;28;20515;-69
2023/01/10 13:16:26;;;;;;;0.10;0.10;;;7.20;99.90;;;;;;5092790;28;20051;-69
2023/01/10 13:19:03;;;;;;;28.73;2.38;;;7.20;99.90;;;;;;5073715;28;20044;-69
2023/01/10 13:21:30;;;;;;;1.10;1.05;;;7.20;99.90;;;;;;5080911;28;20395;-70
2023/01/10 13:24:05;;;;;;;1.65;1.27;;;7.20;99.90;;;;;;5069217;28;20059;-69
2023/01/10 13:26:58;;;;;;;0.10;0.10;;;7.20;99.90;;;;;;5072555;28;20479;-70